Alam Padu — 9MGK6 — position and weather

sailwx.info

Track history (hours):
 
Tides and Currents Weather Stations Pressure Air Temp Water Temp Dewpoint Dewpoint Depression Visibility Wind Speed Wind Dir Waves Ship Positions

Alam Padu

Last reported at 2014-Oct-02 03:32 UTC. Time now 2014-Oct-02 04:37 UTC.
Position S 03°41' E 114°26'.

Length 229 m; draft 7.9 m.

Type: Cargo ship. MMSI: 533924000.

Date/timePositionNaut miles runAvg speedWind from/ knotsBaromVisibWave heightAir tempDewpointWater temp
2014-Oct-02 03:32S 03°41' E 114°26'0 0.0
2014-Oct-02 02:32S 03°41' E 114°26'0 0.0
2014-Oct-02 01:32S 03°41' E 114°26'0 0.0
2014-Oct-02 00:29S 03°41' E 114°26'0 0.0
2014-Oct-01 23:33S 03°41' E 114°26'4 4.3
2014-Oct-01 22:34S 03°45' E 114°26'6 5.9
2014-Oct-01 21:34S 03°51' E 114°27'1412.4
2014-Oct-01 20:27S 04°04' E 114°22'1112.7
2014-Oct-01 19:34S 04°14' E 114°17'1512.5
2014-Oct-01 18:21S 04°29' E 114°13'1011.5
2014-Oct-01 17:29S 04°30' E 114°04'1111.8
2014-Oct-01 16:32S 04°30' E 113°52'1111.8
2014-Oct-01 15:34S 04°30' E 113°41'1211.7
2014-Oct-01 14:33S 04°30' E 113°29'1211.8
2014-Oct-01 13:34S 04°30' E 113°17'1211.9
2014-Oct-01 12:33S 04°30' E 113°05'  
2014-Sep-29 03:33N 01°14' E 104°01'1110.9
2014-Sep-29 02:34N 01°11' E 103°51'1111.0
2014-Sep-29 01:34N 01°04' E 103°42'1110.3
2014-Sep-29 00:32N 01°07' E 103°32'  
Track history (hours):
 
Tides and Currents Weather Stations Pressure Air Temp Water Temp Dewpoint Dewpoint Depression Visibility Wind Speed Wind Dir Waves Ship Positions

Alam Padu

Last reported at 2014-Oct-02 03:32 UTC. Time now 2014-Oct-02 04:37 UTC.
Position S 03°41' E 114°26'.

Length 229 m; draft 7.9 m.

Type: Cargo ship. MMSI: 533924000.

Date/timePositionNaut miles runAvg speedWind from/ knotsBaromVisibWave heightAir tempDewpointWater temp
2014-Oct-02 03:32S 03°41' E 114°26'0 0.0
2014-Oct-02 02:32S 03°41' E 114°26'0 0.0
2014-Oct-02 01:32S 03°41' E 114°26'0 0.0
2014-Oct-02 00:29S 03°41' E 114°26'0 0.0
2014-Oct-01 23:33S 03°41' E 114°26'4 4.3
2014-Oct-01 22:34S 03°45' E 114°26'6 5.9
2014-Oct-01 21:34S 03°51' E 114°27'1412.4
2014-Oct-01 20:27S 04°04' E 114°22'1112.7
2014-Oct-01 19:34S 04°14' E 114°17'1512.5
2014-Oct-01 18:21S 04°29' E 114°13'1011.5
2014-Oct-01 17:29S 04°30' E 114°04'1111.8
2014-Oct-01 16:32S 04°30' E 113°52'1111.8
2014-Oct-01 15:34S 04°30' E 113°41'1211.7
2014-Oct-01 14:33S 04°30' E 113°29'1211.8
2014-Oct-01 13:34S 04°30' E 113°17'1211.9
2014-Oct-01 12:33S 04°30' E 113°05'  
2014-Sep-29 03:33N 01°14' E 104°01'1110.9
2014-Sep-29 02:34N 01°11' E 103°51'1111.0
2014-Sep-29 01:34N 01°04' E 103°42'1110.3
2014-Sep-29 00:32N 01°07' E 103°32'  

Dump ship's entire track history